KPBI/PBI METAR and TAF weather

Enter ICAO airport designator
Station Type Date Time Source
KPBI METAR 2022/08/13 11:53 UTC NOAA

KPBI 131153Z 31005KT 10SM FEW025TCU SCT080 BKN200 26/23 A3003 RMK AO2 SLP169 TCU NE-SE T02560233 10278 20250 53009


Station Type Date Time Source
KPBI Decoded METAR 2022/08/13 11:53 UTC NOAA

PALM BEACH INTERNATIONAL, FL, United States (KPBI) 26-41N 80-06W 6M
Aug 13, 2022 - 07:53 AM EDT / 2022.08.13 1153 UTC
Wind: from the NW (310 degrees) at 6 MPH (5 KT):0
Visibility: 10 mile(s):0
Sky conditions: mostly cloudy
Weather: Towering cumulus clouds observed
Temperature: 78.1 F (25.6 C)
Dew Point: 73.9 F (23.3 C)
Relative Humidity: 87%
Pressure (altimeter): 30.03 in. Hg (1016 hPa)
Pressure tendency: 0.03 inches (0.9 hPa) higher than three hours ago
ob: KPBI 131153Z 31005KT 10SM FEW025TCU SCT080 BKN200 26/23 A3003 RMK AO2 SLP169 TCU NE-SE T02560233 10278 20250 53009
cycle: 12

Station Type Date Time Source
KPBI TAF 2022/08/13 12:22 UTC NOAA

TAF KPBI 131120Z 1312/1412 VRB05KT P6SM FEW025 BKN200
FM131500 12010KT P6SM VCTS SCT030CB BKN250
FM140200 15006KT P6SM FEW030 BKN250
FM140600 VRB03KT P6SM SCT250

Example: see airport list